• Join FlightAware (Why Join?)
  • Login
  • US Flag 
08:32AM EST


 

Airport Tracker/Info


-or-


 

Live Flight TrackerFlight Track Log ✈ ASQ5678 ✈ 02-May-2013 ✈ KMKE - KIAH

Flight Track Log - Related Links

Times and Time Zones

All times are in EDT time to prevent confusion due to time zone crossing. See the ASQ5678 flight status page for this flight to view local times or setup timezone preferences in your user account.

Time Position Orientation Groundspeed Altitude Reporting Facility
EDT Latitude Longitude Course Direction KTS MPH feet Rate Location/Type
08:48AM 42.9667 -87.8833 185° South 143 165 1,500  Level KMKE
08:49AM 43.0000 -87.9000 340° North 185 213 2,600 1,620 Climbing KMKE
08:50AM 43.0000 -87.9667 270° West 242 278 4,500 2,280 Climbing KMKE
08:52AM 42.5737 -88.1562 180° South  Level Estimated
08:52AM 42.8958 -88.0200 201° Southwest 244 281 8,900  Level Chicago Center
08:53AM 42.4804 -88.2204 185° South  Level Estimated
08:53AM 42.8242 -88.0189 179° South 261 300 11,300  Level Chicago Center
08:54AM 42.7511 -88.0189 180° South 263 303 13,600 1,500 Climbing Chicago Center
08:55AM 42.6708 -88.0136 177° South 292 336 14,400 780 Climbing Chicago Center
08:56AM 42.5619 -88.0078 178° South 337 388 15,300 1,200 Climbing Chicago Center
08:57AM 42.4639 -88.0100 181° South 351 404 16,900 1,320 Climbing Chicago Center
08:58AM 42.3656 -88.0125 181° South 353 406 18,100 1,200 Climbing Chicago Center
08:59AM 42.2697 -88.0147 181° South 357 411 19,500 1,260 Climbing Chicago Center
09:00AM 42.1675 -88.0161 181° South 366 421 20,700 1,140 Climbing Chicago Center
09:01AM 42.0628 -88.0192 181° South 377 434 21,900 1,200 Climbing Chicago Center
09:02AM 41.9344 -88.0219 181° South 386 444 23,200 1,080 Climbing Chicago Center
09:03AM 41.8253 -88.0331 184° South 394 453 24,200 1,020 Climbing Chicago Center
09:04AM 41.7153 -88.0442 184° South 398 458 25,300 960 Climbing Chicago Center
09:05AM 41.6050 -88.0561 185° South 400 460 26,300 960 Climbing Chicago Center
09:06AM 41.4867 -88.0692 185° South 402 463 27,400 1,020 Climbing Chicago Center
09:07AM 41.3744 -88.0814 185° South 404 465 28,500 1,020 Climbing Chicago Center
09:08AM 41.2608 -88.0931 184° South 401 461 29,500 960 Climbing Chicago Center
09:09AM 41.1533 -88.1044 185° South 392 451 30,600 1,020 Climbing Chicago Center
09:10AM 41.0442 -88.1164 185° South 394 453 31,600 1,200 Climbing Chicago Center
09:11AM 40.9153 -88.1392 188° South 395 455 33,100 1,380 Climbing Chicago Center
09:12AM 40.8206 -88.2033 207° Southwest 387 445 34,500 1,200 Climbing Chicago Center
09:13AM 40.7308 -88.2683 209° Southwest 373 429 35,600 720 Climbing Chicago Center
09:14AM 40.6422 -88.3300 208° Southwest 364 419 36,000 180 Climbing Chicago Center
09:15AM 40.5489 -88.3961 208° Southwest 375 432 36,000  Level Chicago Center
09:16AM 40.4528 -88.4653 209° Southwest 388 447 36,000  Level Chicago Center
09:17AM 40.3475 -88.5392 208° Southwest 410 472 36,000  Level Chicago Center
09:18AM 40.2431 -88.6108 208° Southwest 419 482 36,000  Level Chicago Center
09:19AM 40.1361 -88.6867 208° Southwest 430 495 36,000  Level Chicago Center
09:20AM 40.0708 -88.7300 207° Southwest 427 491 36,000  Level Kansas City Center
09:21AM 39.9658 -88.8031 208° Southwest 428 493 36,000  Level Kansas City Center
09:22AM 39.8611 -88.8747 208° Southwest 426 490 36,000  Level Kansas City Center
09:23AM 39.7558 -88.9486 208° Southwest 427 491 36,000  Level Kansas City Center
09:24AM 39.6500 -89.0217 208° Southwest 428 493 36,000  Level Kansas City Center
09:25AM 39.5450 -89.0922 207° Southwest 426 490 36,000  Level Kansas City Center
09:26AM 39.4206 -89.1778 208° Southwest 426 490 36,000  Level Kansas City Center
09:27AM 39.3161 -89.2481 208° Southwest 425 489 36,000  Level Kansas City Center
09:28AM 39.2114 -89.3189 208° Southwest 425 489 36,000  Level Kansas City Center
09:29AM 39.1019 -89.3942 208° Southwest 421 484 36,000  Level Kansas City Center
09:30AM 38.9964 -89.4644 207° Southwest 426 490 36,000  Level Kansas City Center
09:31AM 38.8842 -89.5397 208° Southwest 424 488 36,000  Level Kansas City Center
09:32AM 38.7786 -89.6100 207° Southwest 427 491 36,000  Level Kansas City Center
09:33AM 38.6861 -89.6719 208° Southwest 426 490 36,000  Level Kansas City Center
09:34AM 38.5789 -89.7431 207° Southwest 430 495 36,000  Level Kansas City Center
09:35AM 38.4722 -89.8133 207° Southwest 430 495 36,000  Level Kansas City Center
09:36AM 38.3439 -89.8978 207° Southwest 429 494 36,000  Level Kansas City Center
09:37AM 38.2364 -89.9678 207° Southwest 430 495 36,000  Level Kansas City Center
09:38AM 38.1286 -90.0381 207° Southwest 432 497 36,000  Level Kansas City Center
09:39AM 38.0222 -90.1083 207° Southwest 431 496 36,000  Level Kansas City Center
09:40AM 37.9142 -90.1781 207° Southwest 434 499 36,000  Level Kansas City Center
09:41AM 37.8072 -90.2494 208° Southwest 434 499 36,000  Level Kansas City Center
09:42AM 37.6992 -90.3186 207° Southwest 435 501 36,000  Level Kansas City Center
09:43AM 37.5908 -90.3889 207° Southwest 436 502 36,000  Level Kansas City Center
09:44AM 37.4825 -90.4581 207° Southwest 437 503 36,000  Level Kansas City Center
09:46AM 37.3422 -90.5472 207° Southwest 441 507 36,000  Level Memphis Center
09:47AM 37.2214 -90.6278 208° Southwest 447 514 36,000  Level Memphis Center
09:48AM 37.1106 -90.6978 207° Southwest 452 520 36,000  Level Memphis Center
09:49AM 37.0000 -90.7672 207° Southwest 452 520 36,000  Level Memphis Center
09:50AM 36.8894 -90.8367 207° Southwest 452 520 36,000  Level Memphis Center
09:51AM 36.7808 -90.9061 207° Southwest 452 520 36,000  Level Memphis Center
09:52AM 36.6678 -90.9725 205° Southwest 452 520 36,000  Level Memphis Center
09:53AM 36.5569 -91.0414 207° Southwest 452 520 36,000  Level Memphis Center
09:54AM 36.4503 -91.1103 207° Southwest 452 520 36,000  Level Memphis Center
09:55AM 36.3353 -91.1814 206° Southwest 452 520 36,000  Level Memphis Center
09:56AM 36.2242 -91.2497 206° Southwest 452 520 36,000  Level Memphis Center
09:57AM 36.1111 -91.3178 206° Southwest 452 520 36,000  Level Memphis Center
09:58AM 35.9981 -91.3833 205° Southwest 457 526 36,000  Level Memphis Center
09:59AM 35.8911 -91.4561 209° Southwest 448 516 36,000  Level Memphis Center
10:00AM 35.7778 -91.5239 206° Southwest 448 516 36,000  Level Memphis Center
10:01AM 35.6667 -91.5914 206° Southwest 454 522 36,000  Level Memphis Center
10:02AM 35.5514 -91.6611 206° Southwest 454 522 36,000  Level Memphis Center
10:03AM 35.4525 -91.7206 206° Southwest 454 522 36,000  Level Memphis Center
10:04AM 35.3372 -91.7900 206° Southwest 460 529 36,000  Level Memphis Center
10:05AM 35.2236 -91.8567 206° Southwest 455 524 36,000  Level Memphis Center
10:06AM 35.1122 -91.9258 207° Southwest 460 529 36,000  Level Memphis Center
10:07AM 34.9989 -91.9922 206° Southwest 452 520 36,000  Level Memphis Center
10:08AM 34.8831 -92.0608 206° Southwest 458 527 36,000  Level Memphis Center
10:09AM 34.7611 -92.1392 208° Southwest 453 521 36,000  Level Memphis Center
10:10AM 34.6456 -92.1950 202° Southwest 458 527 36,000  Level Memphis Center
10:11AM 34.5158 -92.2172 188° South 453 521 36,000  Level Memphis Center
10:12AM 34.3881 -92.2397 188° South 458 527 36,000  Level Memphis Center
10:13AM 34.2667 -92.2622 189° South 458 527 36,000 -780 Level Memphis Center
10:14AM 34.1411 -92.2869 189° South 458 527 34,500 -780 Descending Memphis Center
10:15AM 33.9406 -92.3189 188° South 452 520 34,000 -240 Descending Fort Worth Center
10:16AM 33.8142 -92.3414 188° South 446 513 34,000  Level Fort Worth Center
10:17AM 33.6964 -92.3656 190° South 446 513 34,000  Level Fort Worth Center
10:18AM 33.5719 -92.3878 188° South 446 513 34,000 -720 Level Fort Worth Center
10:19AM 33.4497 -92.4122 189° South 446 513 32,600 -1,020 Descending Fort Worth Center
10:20AM 33.3253 -92.4317 187° South 452 520 32,000 -300 Descending Fort Worth Center
10:21AM 33.2011 -92.4558 189° South 458 527 32,000  Level Fort Worth Center
10:22AM 33.0744 -92.4753 187° South 458 527 32,000  Level Fort Worth Center
10:23AM 32.9544 -92.4969 189° South 458 527 32,000  Level Fort Worth Center
10:24AM 32.8342 -92.5208 189° South 452 520 32,000  Level Fort Worth Center
10:25AM 32.7100 -92.5425 188° South 446 513 32,000  Level Fort Worth Center
10:27AM 32.5036 -92.5778 188° South 460 529 32,000  Level Houston Center
10:28AM 32.3792 -92.6022 189° South 457 526 32,000  Level Houston Center
10:29AM 32.2525 -92.6261 189° South 459 528 32,000 -60 Level Houston Center
10:30AM 32.1228 -92.6483 188° South 466 536 31,900  Descending Houston Center
10:31AM 31.9703 -92.6869 192° South 476 548 32,000  Climbing Houston Center
10:32AM 31.8669 -92.7772 217° Southwest 466 536 31,900 -540 Descending Houston Center
10:33AM 31.7686 -92.8775 221° Southwest 468 539 30,900 -1,080 Descending Houston Center
10:34AM 31.6700 -92.9711 219° Southwest 459 528 29,700 -1,140 Descending Houston Center
10:35AM 31.5719 -93.0650 219° Southwest 455 524 28,600 -840 Descending Houston Center
10:36AM 31.4719 -93.1614 219° Southwest 463 533 28,000 -300 Descending Houston Center
10:37AM 31.3511 -93.2739 218° Southwest 464 534 28,000 -360 Level Houston Center
10:38AM 31.2533 -93.3711 220° Southwest 462 532 27,300 -960 Descending Houston Center
10:39AM 31.1556 -93.4622 219° Southwest 454 522 26,100 -1,200 Descending Houston Center
10:40AM 31.0569 -93.5561 219° Southwest 459 528 24,900 -1,140 Descending Houston Center
10:41AM 30.9569 -93.6517 219° Southwest 465 535 23,800 -1,260 Descending Houston Center
10:42AM 30.8414 -93.7603 219° Southwest 453 521 22,400 -1,380 Descending Houston Center
10:44AM 30.7483 -93.8483 219° Southwest 439 505 21,000 -1,440 Descending Houston Center
10:45AM 30.6553 -93.9358 219° Southwest 434 499 19,500 -1,440 Descending Houston Center
10:46AM 30.5633 -94.0228 219° Southwest 431 496 18,100 -1,440 Descending Houston Center
10:47AM 30.4717 -94.1078 219° Southwest 427 491 16,600 -1,680 Descending Houston Center
10:48AM 30.3731 -94.1986 218° Southwest 400 460 14,900 -1,800 Descending Houston Center
10:49AM 30.2875 -94.2792 219° Southwest 385 443 13,000 -1,440 Descending Houston Center
10:50AM 30.2119 -94.3503 219° Southwest 361 415 11,900 -1,080 Descending Houston Center
10:50AM 30.1917 -94.3822 234° Southwest 328 377 11,600 -1,020 Descending Houston Center
10:51AM 30.1706 -94.4403 247° West 325 374 10,900 -900 Descending Houston Center
10:51AM 30.1550 -94.4789 245° Southwest 316 364 10,700 -1,020 Descending Houston Center
10:52AM 30.1339 -94.5400 248° West 313 360 9,900 -1,140 Descending Houston Center
10:52AM 30.1233 -94.5653 244° Southwest 292 336 9,600 -1,140 Descending Houston Center
10:53AM 30.1017 -94.6242 247° West 294 338 8,800 -1,020 Descending Houston Center
10:53AM 30.0897 -94.6517 243° Southwest 281 323 8,600 -1,020 Descending Houston Center
10:54AM 30.0722 -94.7058 250° West 281 323 7,800 -1,020 Descending Houston Center
10:54AM 30.0600 -94.7353 244° Southwest 278 320 7,600 -900 Descending Houston Center
10:55AM 30.0422 -94.7881 249° West 280 322 6,900 -900 Descending Houston Center
10:56AM 30.0125 -94.8686 247° West 276 318 6,000 -480 Descending Houston Center
10:57AM 29.9922 -94.9553 255° West 227 261 6,000  Level Houston Center
10:57AM 29.9925 -94.9756 271° West 198 228 6,000 -720 Level Houston Center
10:58AM 29.9939 -95.0208 272° West 206 237 5,300 -1,140 Descending Houston Center
10:59AM 29.9942 -95.0867 270° West 206 237 4,100 -1,080 Descending Houston Center
11:00AM 29.9942 -95.1447 270° West 188 216 3,100 -1,020 Descending Houston Center
11:01AM 29.9933 -95.2019 269° West 183 211 2,100 -1,020 Descending Houston Center